Time;durP1;ratioP1;P1;durP2;ratioP2;P2;SDS_P1;SDS_P2;PMS_P1;PMS_P2;Temp;Humidity;BMP_temperature;BMP_pressure;BME280_temperature;BME280_humidity;BME280_pressure;Samples;Min_cycle;Max_cycle;Signal;HPM_P1;HPM_P2
2022/08/25 00:01:19;;;;;;;9.20;3.60;;;23.10;99.90;;;;;;4980384;28;20812;-71
2022/08/25 00:03:45;;;;;;;8.57;3.30;;;23.10;99.90;;;;;;4972507;28;20042;-72
2022/08/25 00:06:12;;;;;;;6.72;3.47;;;23.00;99.90;;;;;;4974120;28;20039;-71
2022/08/25 00:08:38;;;;;;;8.65;3.67;;;23.00;99.90;;;;;;5008927;28;20042;-72
2022/08/25 00:11:11;;;;;;;6.35;2.88;;;23.00;99.90;;;;;;4981902;28;20038;-72
2022/08/25 00:13:53;;;;;;;6.90;3.63;;;22.90;99.90;;;;;;4976566;28;20085;-71
2022/08/25 00:16:20;;;;;;;4.72;2.70;;;23.00;99.90;;;;;;4977991;28;21470;-70
2022/08/25 00:18:49;;;;;;;5.03;3.08;;;22.90;99.90;;;;;;4976872;28;20046;-71
2022/08/25 00:21:15;;;;;;;6.60;3.33;;;22.90;99.90;;;;;;4979526;28;20172;-71
2022/08/25 00:23:42;;;;;;;5.35;3.20;;;22.80;99.90;;;;;;4976974;28;20117;-71
2022/08/25 00:26:08;;;;;;;4.03;3.20;;;22.80;99.90;;;;;;4983910;28;20053;-72
2022/08/25 00:28:35;;;;;;;6.65;3.47;;;22.80;99.90;;;;;;4978522;28;20885;-71
2022/08/25 00:31:01;;;;;;;5.45;3.17;;;22.70;99.90;;;;;;4991985;28;20125;-73
2022/08/25 00:33:29;;;;;;;8.32;2.92;;;22.70;99.90;;;;;;4975211;28;20104;-70
2022/08/25 00:35:56;;;;;;;7.68;2.80;;;22.70;99.90;;;;;;4980023;28;20034;-72
2022/08/25 00:38:23;;;;;;;6.00;3.38;;;22.70;99.90;;;;;;4975710;28;20037;-72
2022/08/25 00:41:04;;;;;;;8.25;3.33;;;22.60;99.90;;;;;;4978399;28;20449;-71
2022/08/25 00:43:45;;;;;;;9.32;3.97;;;22.60;99.90;;;;;;4978128;28;20030;-71
2022/08/25 00:46:20;;;;;;;5.63;3.38;;;22.60;99.90;;;;;;5009299;28;20042;-69
2022/08/25 00:48:50;;;;;;;4.65;2.92;;;22.60;99.90;;;;;;4978318;28;20059;-70
2022/08/25 00:51:24;;;;;;;7.18;3.83;;;22.60;99.90;;;;;;4977232;28;20034;-71
2022/08/25 00:53:50;;;;;;;11.13;3.47;;;22.50;99.90;;;;;;4984517;28;20468;-72
2022/08/25 00:56:17;;;;;;;4.97;3.08;;;22.50;99.90;;;;;;5018719;28;20121;-71
2022/08/25 00:58:43;;;;;;;8.05;3.88;;;22.50;99.90;;;;;;4987011;28;20042;-70
2022/08/25 01:01:09;;;;;;;4.13;3.03;;;22.50;99.90;;;;;;4986489;28;20045;-70
2022/08/25 01:03:35;;;;;;;5.25;3.45;;;22.40;99.90;;;;;;4985013;28;20034;-72
2022/08/25 01:06:03;;;;;;;4.63;2.90;;;22.40;99.90;;;;;;4989790;28;20380;-71
2022/08/25 01:08:31;;;;;;;4.65;3.30;;;22.40;99.90;;;;;;4988689;28;20038;-72
2022/08/25 01:11:00;;;;;;;6.32;2.97;;;22.40;99.90;;;;;;4990789;28;20585;-72
2022/08/25 01:13:34;;;;;;;8.20;3.92;;;22.30;99.90;;;;;;4977733;28;20406;-69
2022/08/25 01:16:01;;;;;;;5.93;2.95;;;22.20;99.90;;;;;;4976728;28;20043;-69
2022/08/25 01:18:27;;;;;;;7.60;3.38;;;22.20;99.90;;;;;;4978457;28;20030;-70
2022/08/25 01:20:55;;;;;;;7.65;3.90;;;22.20;99.90;;;;;;5006538;28;20039;-71
2022/08/25 01:23:21;;;;;;;6.35;2.80;;;22.20;99.90;;;;;;4976963;28;20066;-71
2022/08/25 01:26:04;;;;;;;6.75;3.42;;;22.20;99.90;;;;;;5011551;28;20463;-70
2022/08/25 01:28:29;;;;;;;5.85;3.42;;;22.20;99.90;;;;;;4977800;28;20038;-71
2022/08/25 01:30:55;;;;;;;8.98;3.00;;;22.10;99.90;;;;;;5007604;28;20492;-71
2022/08/25 01:33:21;;;;;;;7.40;3.25;;;22.10;99.90;;;;;;4984983;28;20049;-71
2022/08/25 01:35:47;;;;;;;5.40;3.03;;;22.10;99.90;;;;;;4978779;28;20125;-71
2022/08/25 01:38:13;;;;;;;4.57;2.95;;;22.10;99.90;;;;;;4978080;28;20054;-71
2022/08/25 01:40:41;;;;;;;6.10;3.10;;;22.10;99.90;;;;;;4975908;28;20037;-72
2022/08/25 01:43:13;;;;;;;8.00;3.20;;;22.10;99.90;;;;;;4975209;28;20047;-71
2022/08/25 01:45:41;;;;;;;9.45;3.75;;;22.10;99.90;;;;;;4976035;28;20034;-71
2022/08/25 01:48:07;;;;;;;4.30;2.55;;;22.10;99.90;;;;;;4975701;28;20080;-71
2022/08/25 01:50:33;;;;;;;5.38;2.88;;;22.10;99.90;;;;;;4976710;28;20030;-72
2022/08/25 01:53:03;;;;;;;5.05;2.70;;;22.10;99.90;;;;;;4974118;28;20199;-70
2022/08/25 01:55:29;;;;;;;9.45;2.70;;;22.10;99.90;;;;;;5007977;28;20041;-70
2022/08/25 01:57:57;;;;;;;7.10;2.75;;;22.10;99.90;;;;;;4975356;28;20511;-70
2022/08/25 02:00:23;;;;;;;5.45;2.72;;;22.10;99.90;;;;;;4979144;28;20035;-72
2022/08/25 02:02:48;;;;;;;5.00;2.70;;;22.00;99.90;;;;;;4977325;28;20046;-70
2022/08/25 02:05:18;;;;;;;3.30;2.45;;;22.00;99.90;;;;;;4975887;28;20037;-71
2022/08/25 02:07:44;;;;;;;12.63;2.80;;;22.00;99.90;;;;;;4975925;28;20034;-72
2022/08/25 02:10:11;;;;;;;5.72;2.33;;;22.00;99.90;;;;;;5007391;28;20034;-71
2022/08/25 02:12:37;;;;;;;3.60;2.28;;;21.90;99.90;;;;;;4976849;28;20038;-71
2022/08/25 02:15:05;;;;;;;5.68;3.15;;;21.90;99.90;;;;;;4976903;28;20047;-71
2022/08/25 02:17:35;;;;;;;5.18;2.72;;;21.90;99.90;;;;;;4976168;28;20125;-72
2022/08/25 02:20:02;;;;;;;7.97;2.77;;;21.90;99.90;;;;;;4975162;28;20054;-71
2022/08/25 02:22:27;;;;;;;5.97;2.50;;;21.90;99.90;;;;;;4975688;28;20328;-70
2022/08/25 02:24:53;;;;;;;4.00;2.33;;;21.90;99.90;;;;;;4974805;28;20058;-71
2022/08/25 02:27:18;;;;;;;9.07;2.45;;;21.90;99.90;;;;;;4978849;28;20491;-72
2022/08/25 02:29:46;;;;;;;3.28;2.42;;;22.00;99.90;;;;;;4975062;28;20037;-71
2022/08/25 02:32:11;;;;;;;4.32;2.45;;;22.00;99.90;;;;;;4975532;28;20062;-70
2022/08/25 02:34:39;;;;;;;5.68;2.03;;;22.00;99.90;;;;;;4974009;28;20062;-70
2022/08/25 02:37:05;;;;;;;5.63;2.38;;;22.00;99.90;;;;;;4976398;28;20614;-70
2022/08/25 02:39:31;;;;;;;4.75;2.22;;;22.00;99.90;;;;;;4974824;28;20137;-71
2022/08/25 02:41:58;;;;;;;4.82;2.50;;;22.00;99.90;;;;;;4977679;28;20044;-71
2022/08/25 02:44:24;;;;;;;5.47;2.30;;;22.00;99.90;;;;;;4974474;28;20142;-71
2022/08/25 02:46:49;;;;;;;9.68;2.85;;;22.00;99.90;;;;;;5008116;28;20574;-70
2022/08/25 02:49:15;;;;;;;3.08;1.95;;;22.00;99.90;;;;;;4974732;28;20051;-70
2022/08/25 02:51:41;;;;;;;3.60;1.90;;;22.00;99.90;;;;;;4976432;28;20109;-71
2022/08/25 02:54:07;;;;;;;8.02;2.28;;;22.00;99.90;;;;;;4973032;28;20093;-71
2022/08/25 02:56:32;;;;;;;3.80;1.88;;;22.00;99.90;;;;;;4975219;28;20026;-70
2022/08/25 02:58:59;;;;;;;9.85;3.05;;;22.00;99.90;;;;;;4976540;28;20056;-71
2022/08/25 03:01:24;;;;;;;4.97;2.30;;;22.00;99.90;;;;;;4975072;28;20053;-72
2022/08/25 03:03:51;;;;;;;3.85;1.67;;;22.10;99.90;;;;;;4976492;28;20034;-71
2022/08/25 03:06:21;;;;;;;3.72;1.88;;;22.10;99.90;;;;;;4974778;28;20455;-72
2022/08/25 03:08:47;;;;;;;3.40;1.70;;;22.10;99.90;;;;;;4976828;28;20114;-71
2022/08/25 03:11:13;;;;;;;3.03;1.58;;;22.10;99.90;;;;;;4981741;28;20133;-71
2022/08/25 03:13:40;;;;;;;3.05;1.40;;;22.10;99.90;;;;;;4975563;28;20042;-71
2022/08/25 03:16:07;;;;;;;5.13;1.90;;;22.10;99.90;;;;;;4975306;28;20384;-70
2022/08/25 03:18:33;;;;;;;2.42;1.60;;;22.00;99.90;;;;;;4975473;28;20065;-70
2022/08/25 03:20:58;;;;;;;3.35;1.77;;;22.10;99.90;;;;;;4974924;28;20371;-70
2022/08/25 03:23:24;;;;;;;4.82;1.85;;;22.10;99.90;;;;;;4974732;28;20043;-70
2022/08/25 03:28:34;;;;;;;5.65;1.80;;;22.10;99.90;;;;;;4974514;28;20414;-72
2022/08/25 03:31:00;;;;;;;4.38;1.88;;;22.10;99.90;;;;;;4979620;28;20046;-71
2022/08/25 03:33:29;;;;;;;2.55;1.50;;;22.10;99.90;;;;;;4981280;28;20129;-71
2022/08/25 03:35:55;;;;;;;6.80;1.63;;;22.10;99.90;;;;;;4975642;28;20055;-72
2022/08/25 03:38:22;;;;;;;4.20;1.90;;;22.20;99.90;;;;;;4977677;28;20111;-71
2022/08/25 03:40:48;;;;;;;3.15;1.63;;;22.10;99.90;;;;;;4976297;28;20030;-72
2022/08/25 03:43:14;;;;;;;4.93;1.55;;;22.10;99.90;;;;;;4974909;28;20108;-69
2022/08/25 03:45:41;;;;;;;3.53;1.38;;;22.10;99.90;;;;;;4978493;28;20038;-72
2022/08/25 03:48:07;;;;;;;5.90;1.50;;;22.10;99.90;;;;;;4978445;28;20053;-71
2022/08/25 03:50:33;;;;;;;6.13;1.85;;;22.10;99.90;;;;;;4978962;28;20035;-72
2022/08/25 03:52:58;;;;;;;2.42;1.40;;;22.10;99.90;;;;;;4979249;28;20595;-70
2022/08/25 03:55:25;;;;;;;5.18;1.83;;;22.10;99.90;;;;;;4977259;28;20031;-71
2022/08/25 03:57:51;;;;;;;2.75;1.50;;;22.10;99.90;;;;;;5011623;28;20030;-71
2022/08/25 04:00:18;;;;;;;8.80;1.70;;;22.10;99.90;;;;;;4976329;28;20033;-70
2022/08/25 04:02:45;;;;;;;4.53;1.92;;;22.10;99.90;;;;;;4979174;28;20035;-72
2022/08/25 04:05:10;;;;;;;9.50;1.58;;;22.10;99.90;;;;;;4979808;28;20573;-71
2022/08/25 04:07:36;;;;;;;4.15;1.55;;;22.10;99.90;;;;;;4977298;28;20034;-71
2022/08/25 04:10:04;;;;;;;3.35;1.63;;;22.10;99.90;;;;;;4979961;28;20035;-69
2022/08/25 04:12:30;;;;;;;2.75;1.40;;;22.10;99.90;;;;;;4986072;28;20115;-70
2022/08/25 04:14:56;;;;;;;6.10;2.00;;;22.00;99.90;;;;;;4979659;28;20110;-69
2022/08/25 04:17:21;;;;;;;5.47;1.25;;;22.10;99.90;;;;;;4976636;28;20130;-70
2022/08/25 04:19:47;;;;;;;4.07;1.48;;;22.00;99.90;;;;;;4979630;28;20116;-70
2022/08/25 04:22:12;;;;;;;4.70;1.85;;;22.10;99.90;;;;;;4977839;28;20037;-71
2022/08/25 04:24:38;;;;;;;4.57;2.20;;;22.10;99.90;;;;;;4978875;28;20964;-71
2022/08/25 04:27:04;;;;;;;2.85;1.60;;;22.10;99.90;;;;;;4987401;28;20150;-70
2022/08/25 04:29:29;;;;;;;6.60;1.90;;;22.00;99.90;;;;;;5008640;28;20033;-68
2022/08/25 04:31:55;;;;;;;7.85;1.58;;;22.00;99.90;;;;;;4982132;28;20066;-71
2022/08/25 04:34:22;;;;;;;5.50;1.92;;;21.90;99.90;;;;;;4977023;28;20050;-70
2022/08/25 04:36:51;;;;;;;6.03;1.33;;;21.80;99.90;;;;;;4972902;28;20123;-71
2022/08/25 04:39:19;;;;;;;4.93;1.40;;;21.80;99.90;;;;;;4986433;28;20042;-70
2022/08/25 04:41:48;;;;;;;4.97;1.70;;;21.80;99.90;;;;;;4986115;28;20042;-68
2022/08/25 04:44:15;;;;;;;4.57;1.93;;;21.80;99.90;;;;;;4984452;28;20122;-71
2022/08/25 04:46:41;;;;;;;4.47;1.90;;;21.70;99.90;;;;;;4981007;28;20278;-72
2022/08/25 04:49:06;;;;;;;5.95;1.77;;;21.70;99.90;;;;;;4983343;28;20083;-71
2022/08/25 04:51:41;;;;;;;4.43;1.48;;;21.70;99.90;;;;;;4984881;28;20069;-69
2022/08/25 04:54:10;;;;;;;6.75;1.67;;;21.70;99.90;;;;;;4985004;28;20038;-70
2022/08/25 04:56:38;;;;;;;2.95;1.38;;;21.80;99.90;;;;;;4982447;28;20034;-71
2022/08/25 04:59:09;;;;;;;3.65;1.48;;;21.80;99.90;;;;;;4982594;28;20039;-71
2022/08/25 05:01:35;;;;;;;2.58;1.17;;;21.80;99.90;;;;;;4984973;28;20129;-69
2022/08/25 05:04:03;;;;;;;3.40;1.60;;;21.80;99.90;;;;;;4984367;28;20064;-71
2022/08/25 05:06:32;;;;;;;4.13;1.85;;;21.80;99.90;;;;;;4982213;28;20052;-71
2022/08/25 05:09:00;;;;;;;5.60;1.63;;;21.80;99.90;;;;;;4985212;28;20439;-70
2022/08/25 05:11:26;;;;;;;6.72;1.27;;;21.80;99.90;;;;;;4981884;28;20038;-70
2022/08/25 05:13:54;;;;;;;5.57;1.23;;;21.80;99.90;;;;;;4985290;28;20041;-71
2022/08/25 05:16:21;;;;;;;2.65;1.30;;;21.80;99.70;;;;;;4984358;28;20130;-70
2022/08/25 05:18:47;;;;;;;2.70;1.48;;;21.90;99.80;;;;;;4982833;28;20058;-71
2022/08/25 05:21:16;;;;;;;4.03;1.17;;;21.80;99.90;;;;;;4980682;28;20050;-71
2022/08/25 05:23:42;;;;;;;3.03;1.35;;;21.80;99.90;;;;;;4988170;28;20038;-71
2022/08/25 05:26:14;;;;;;;6.38;1.55;;;21.80;99.80;;;;;;4989614;28;20499;-70
2022/08/25 05:28:40;;;;;;;5.00;1.33;;;21.80;99.80;;;;;;4980939;28;20038;-70
2022/08/25 05:31:07;;;;;;;5.43;1.05;;;21.80;99.80;;;;;;4979363;28;20050;-71
2022/08/25 05:33:33;;;;;;;4.25;1.73;;;21.80;99.80;;;;;;4979683;28;20088;-71
2022/08/25 05:35:59;;;;;;;5.22;1.55;;;21.80;99.80;;;;;;4984223;28;20037;-71
2022/08/25 05:38:25;;;;;;;3.25;1.38;;;21.80;99.70;;;;;;4989106;28;20038;-70
2022/08/25 05:40:55;;;;;;;6.57;1.40;;;21.80;99.90;;;;;;4982456;28;20034;-71
2022/08/25 05:43:21;;;;;;;4.68;1.60;;;21.80;99.60;;;;;;4972844;28;20117;-70
2022/08/25 05:45:46;;;;;;;8.05;1.77;;;21.80;99.90;;;;;;4983134;28;20121;-70
2022/08/25 05:48:12;;;;;;;12.82;1.95;;;21.80;99.90;;;;;;4985997;28;20038;-69
2022/08/25 05:50:38;;;;;;;3.05;1.17;;;21.70;99.90;;;;;;4982138;28;20045;-71
2022/08/25 05:53:04;;;;;;;5.80;1.45;;;21.80;99.80;;;;;;4984553;28;20041;-69
2022/08/25 05:55:29;;;;;;;3.80;2.20;;;21.80;99.70;;;;;;4985621;28;20035;-71
2022/08/25 05:57:55;;;;;;;7.60;1.38;;;21.80;99.60;;;;;;4985528;28;20082;-70
2022/08/25 06:00:21;;;;;;;4.03;1.38;;;21.90;99.70;;;;;;4984315;28;20062;-71
2022/08/25 06:02:48;;;;;;;4.88;1.45;;;21.90;99.60;;;;;;4984040;28;20030;-68
2022/08/25 06:05:20;;;;;;;3.15;1.35;;;21.90;99.40;;;;;;4982413;28;20046;-72
2022/08/25 06:07:49;;;;;;;3.95;1.27;;;21.90;99.30;;;;;;4982903;28;20506;-70
2022/08/25 06:10:15;;;;;;;2.85;1.15;;;22.00;99.20;;;;;;4984418;28;20434;-68
2022/08/25 06:12:46;;;;;;;3.00;1.25;;;22.10;98.70;;;;;;4984576;28;20581;-71
2022/08/25 06:15:14;;;;;;;4.35;1.50;;;22.10;98.80;;;;;;4980769;28;20499;-72
2022/08/25 06:17:41;;;;;;;3.58;1.50;;;22.20;98.60;;;;;;4983867;28;20034;-70
2022/08/25 06:20:13;;;;;;;2.45;1.25;;;22.20;98.60;;;;;;4983175;28;20097;-70
2022/08/25 06:22:39;;;;;;;6.82;1.40;;;22.30;98.80;;;;;;4982191;28;20089;-71
2022/08/25 06:25:07;;;;;;;2.80;1.10;;;22.40;98.30;;;;;;4986890;28;20050;-70
2022/08/25 06:27:33;;;;;;;5.03;1.08;;;22.40;97.90;;;;;;4984188;28;20081;-70
2022/08/25 06:30:02;;;;;;;4.80;1.63;;;22.60;98.00;;;;;;4985148;28;20094;-71
2022/08/25 06:32:32;;;;;;;3.00;1.20;;;22.90;97.60;;;;;;5013970;28;20073;-70
2022/08/25 06:34:58;;;;;;;6.07;1.20;;;23.60;97.20;;;;;;4983850;28;20124;-70
2022/08/25 06:37:25;;;;;;;3.33;1.13;;;24.40;95.70;;;;;;4984511;28;20133;-72
2022/08/25 06:39:51;;;;;;;6.80;1.60;;;24.60;95.30;;;;;;5015519;28;20057;-69
2022/08/25 06:42:16;;;;;;;6.78;1.58;;;24.70;94.60;;;;;;4982737;28;20941;-70
2022/08/25 06:44:42;;;;;;;6.18;1.67;;;25.00;94.00;;;;;;4982478;28;20507;-71
2022/08/25 06:47:08;;;;;;;3.22;1.05;;;25.80;94.10;;;;;;4984668;28;20565;-71
2022/08/25 06:49:34;;;;;;;10.63;1.90;;;26.60;93.90;;;;;;4972016;28;20046;-70
2022/08/25 06:52:00;;;;;;;6.65;1.52;;;27.30;92.60;;;;;;4963925;28;20051;-71
2022/08/25 06:54:26;;;;;;;3.50;1.40;;;28.00;91.20;;;;;;4962562;28;20049;-74
2022/08/25 06:56:52;;;;;;;10.07;1.85;;;28.30;91.10;;;;;;4979383;28;20105;-70
2022/08/25 06:59:17;;;;;;;5.45;1.10;;;28.10;89.10;;;;;;4963108;28;20042;-68
2022/08/25 07:01:43;;;;;;;4.72;1.27;;;28.50;88.80;;;;;;4967353;28;20039;-71
2022/08/25 07:04:09;;;;;;;5.25;1.42;;;28.40;89.60;;;;;;4968113;28;20626;-71
2022/08/25 07:06:35;;;;;;;3.58;1.23;;;28.10;88.10;;;;;;4971232;28;20042;-69
2022/08/25 07:09:03;;;;;;;4.05;1.23;;;27.80;89.10;;;;;;4962734;28;20078;-71
2022/08/25 07:11:32;;;;;;;4.30;1.38;;;27.30;89.40;;;;;;4965745;28;20499;-71
2022/08/25 07:13:59;;;;;;;5.47;1.20;;;26.80;90.10;;;;;;4962203;28;20110;-69
2022/08/25 07:16:25;;;;;;;2.58;1.08;;;26.30;90.50;;;;;;4963123;28;20751;-70
2022/08/25 07:18:55;;;;;;;3.22;1.40;;;25.90;90.80;;;;;;4964409;28;20039;-71
2022/08/25 07:21:22;;;;;;;2.83;1.33;;;25.50;90.90;;;;;;4963224;28;20042;-70
2022/08/25 07:23:48;;;;;;;3.30;1.30;;;25.20;91.60;;;;;;4962519;28;20525;-70
2022/08/25 07:26:19;;;;;;;2.53;1.40;;;25.00;92.00;;;;;;4966706;28;20047;-70
2022/08/25 07:28:45;;;;;;;8.55;1.27;;;24.80;92.10;;;;;;4962294;28;20031;-71
2022/08/25 07:31:12;;;;;;;4.05;1.40;;;24.50;92.70;;;;;;4963211;28;20043;-69
2022/08/25 07:33:37;;;;;;;7.55;1.48;;;24.40;93.10;;;;;;4963056;28;20119;-70
2022/08/25 07:36:03;;;;;;;4.43;1.48;;;24.20;93.90;;;;;;4964559;28;20064;-68
2022/08/25 07:38:29;;;;;;;5.80;1.65;;;24.10;93.60;;;;;;4962420;28;20031;-70
2022/08/25 07:41:03;;;;;;;4.90;1.23;;;24.10;93.90;;;;;;4964747;28;20078;-70
2022/08/25 07:43:28;;;;;;;1.85;0.85;;;24.20;93.90;;;;;;4961046;28;20145;-71
2022/08/25 07:45:54;;;;;;;6.43;1.10;;;24.30;94.30;;;;;;4964033;28;20038;-72
2022/08/25 07:48:20;;;;;;;2.83;1.20;;;24.50;93.60;;;;;;4963707;28;20045;-71
2022/08/25 07:50:47;;;;;;;3.60;1.05;;;24.70;93.60;;;;;;4964016;28;20051;-72
2022/08/25 07:53:14;;;;;;;7.07;1.27;;;24.80;93.70;;;;;;4981233;28;20574;-72
2022/08/25 07:55:40;;;;;;;3.25;0.88;;;25.00;93.50;;;;;;4964845;28;20027;-72
2022/08/25 07:58:07;;;;;;;7.53;1.38;;;25.20;92.80;;;;;;4979502;28;20043;-71
2022/08/25 08:00:35;;;;;;;10.30;2.15;;;25.30;92.60;;;;;;4965247;28;20547;-72
2022/08/25 08:03:05;;;;;;;2.05;0.80;;;25.40;92.30;;;;;;4963665;28;20046;-72
2022/08/25 08:05:31;;;;;;;4.20;0.90;;;25.50;92.50;;;;;;4971090;28;20039;-72
2022/08/25 08:07:58;;;;;;;4.30;1.10;;;25.60;92.80;;;;;;4980995;28;20042;-71
2022/08/25 08:10:24;;;;;;;4.50;1.38;;;25.60;92.50;;;;;;4982887;28;20038;-72
2022/08/25 08:12:51;;;;;;;3.78;0.95;;;25.80;92.40;;;;;;4980411;28;20035;-71
2022/08/25 08:15:18;;;;;;;7.75;1.63;;;25.80;92.80;;;;;;4982296;28;20046;-72
2022/08/25 08:17:44;;;;;;;2.70;0.95;;;26.00;92.00;;;;;;4982725;28;20038;-72
2022/08/25 08:20:10;;;;;;;6.43;1.55;;;26.10;91.70;;;;;;4981732;28;20034;-71
2022/08/25 08:22:39;;;;;;;4.03;0.80;;;26.20;91.90;;;;;;4977912;28;20038;-71
2022/08/25 08:25:06;;;;;;;3.83;1.10;;;26.30;92.10;;;;;;4982051;28;20089;-71
2022/08/25 08:27:32;;;;;;;9.35;1.15;;;26.40;92.30;;;;;;4981709;28;20490;-72
2022/08/25 08:29:58;;;;;;;4.28;1.50;;;26.50;91.70;;;;;;4985365;28;20030;-71
2022/08/25 08:32:24;;;;;;;3.95;1.40;;;26.70;91.00;;;;;;4984988;28;20045;-71
2022/08/25 08:34:49;;;;;;;9.10;1.27;;;26.80;91.00;;;;;;4965444;28;20162;-69
2022/08/25 08:37:15;;;;;;;4.38;1.15;;;26.90;90.80;;;;;;4964458;28;20050;-71
2022/08/25 08:39:41;;;;;;;4.47;1.33;;;27.00;91.00;;;;;;4968516;28;20934;-70
2022/08/25 08:42:15;;;;;;;5.60;1.35;;;27.00;91.40;;;;;;4972045;28;20470;-71
2022/08/25 08:44:44;;;;;;;7.03;1.60;;;27.10;91.00;;;;;;4965314;28;20042;-71
2022/08/25 08:47:21;;;;;;;4.72;1.10;;;27.30;91.00;;;;;;4969935;28;20081;-72
2022/08/25 08:50:25;;;;;;;5.43;1.13;;;27.40;90.90;;;;;;4965338;28;20051;-72
2022/08/25 08:53:10;;;;;;;4.43;1.08;;;27.50;90.90;;;;;;4983931;28;20038;-72
2022/08/25 08:55:43;;;;;;;3.80;1.38;;;27.50;90.70;;;;;;4982177;28;20069;-72
2022/08/25 08:58:29;;;;;;;1.88;1.00;;;27.60;90.50;;;;;;4985577;28;20038;-72
2022/08/25 09:00:57;;;;;;;3.38;1.00;;;27.70;90.80;;;;;;4983157;28;20053;-70
2022/08/25 09:03:37;;;;;;;4.30;1.20;;;27.80;90.20;;;;;;4982788;28;20034;-72
2022/08/25 09:06:12;;;;;;;2.92;0.75;;;27.90;90.00;;;;;;5014456;28;20046;-72
2022/08/25 09:08:42;;;;;;;2.25;1.05;;;27.90;90.10;;;;;;4984063;28;20084;-70
2022/08/25 09:11:26;;;;;;;2.22;0.70;;;28.00;90.00;;;;;;4984470;28;20042;-70
2022/08/25 09:14:14;;;;;;;2.83;1.30;;;28.10;87.60;;;;;;4982367;28;20069;-72
2022/08/25 09:16:56;;;;;;;3.25;1.40;;;28.20;87.90;;;;;;4983606;28;20076;-70
2022/08/25 09:19:59;;;;;;;4.82;1.13;;;28.30;88.40;;;;;;4984811;28;20042;-72
2022/08/25 09:22:38;;;;;;;4.25;1.10;;;28.30;89.30;;;;;;4980862;28;20042;-70
2022/08/25 09:25:09;;;;;;;3.60;1.00;;;28.50;87.90;;;;;;4982910;28;20226;-69
2022/08/25 09:27:38;;;;;;;2.20;0.85;;;28.60;87.60;;;;;;4984793;28;20050;-72
2022/08/25 09:30:16;;;;;;;7.70;0.88;;;28.70;86.80;;;;;;4984324;28;20046;-71
2022/08/25 09:33:01;;;;;;;2.17;0.88;;;28.80;87.20;;;;;;4982917;28;20197;-75
2022/08/25 09:35:31;;;;;;;1.15;0.70;;;28.90;86.90;;;;;;4984276;28;20084;-72
2022/08/25 09:37:59;;;;;;;2.45;0.90;;;28.90;87.10;;;;;;4984212;28;20034;-68
2022/08/25 09:40:31;;;;;;;3.85;1.73;;;29.00;86.90;;;;;;5016251;28;20030;-69
2022/08/25 09:43:00;;;;;;;3.38;0.90;;;29.10;86.50;;;;;;4981361;28;20034;-69
2022/08/25 09:45:38;;;;;;;4.70;0.98;;;29.20;85.20;;;;;;4984893;28;20053;-69
2022/08/25 09:48:28;;;;;;;1.88;0.80;;;29.30;83.90;;;;;;5014123;28;20041;-71
2022/08/25 09:51:00;;;;;;;5.60;0.90;;;29.30;85.00;;;;;;4980271;28;20085;-71
2022/08/25 09:53:27;;;;;;;5.45;1.20;;;29.40;85.50;;;;;;4981075;28;20073;-70
2022/08/25 09:56:03;;;;;;;6.32;1.00;;;29.40;85.00;;;;;;4981930;28;20074;-71
2022/08/25 09:58:29;;;;;;;4.63;1.27;;;29.50;84.80;;;;;;4977919;28;20034;-71
2022/08/25 10:01:16;;;;;;;3.97;0.90;;;29.50;82.50;;;;;;4982501;28;20777;-70
2022/08/25 10:04:03;;;;;;;1.40;0.73;;;29.60;84.10;;;;;;4980553;28;20022;-71
2022/08/25 10:06:49;;;;;;;5.70;0.82;;;29.50;85.20;;;;;;4980903;28;20461;-72
2022/08/25 10:09:34;;;;;;;4.63;0.95;;;29.60;83.50;;;;;;4982036;28;20746;-70
2022/08/25 10:12:03;;;;;;;2.58;0.98;;;29.70;83.70;;;;;;4982011;28;20631;-70
2022/08/25 10:14:39;;;;;;;2.17;0.90;;;29.80;81.70;;;;;;4981760;28;20092;-71
2022/08/25 10:17:24;;;;;;;2.28;0.93;;;30.00;82.00;;;;;;4982189;28;20054;-71
2022/08/25 10:20:10;;;;;;;2.50;0.93;;;29.90;82.40;;;;;;4980380;28;20049;-70
2022/08/25 10:22:41;;;;;;;4.72;1.13;;;29.90;81.40;;;;;;4976553;28;20615;-70
2022/08/25 10:25:10;;;;;;;7.47;0.90;;;29.90;80.70;;;;;;4982376;28;20161;-70
2022/08/25 10:28:00;;;;;;;4.07;1.00;;;29.90;81.00;;;;;;4981582;28;20061;-69
2022/08/25 10:30:45;;;;;;;2.90;0.90;;;29.80;81.00;;;;;;4978496;28;20100;-71
2022/08/25 10:33:27;;;;;;;2.95;0.98;;;29.80;81.90;;;;;;4957910;28;20101;-70
2022/08/25 10:36:13;;;;;;;3.90;1.45;;;29.90;81.00;;;;;;4959388;28;20069;-69
2022/08/25 10:38:43;;;;;;;10.70;1.35;;;30.00;80.10;;;;;;4962822;28;20041;-70
2022/08/25 10:41:53;;;;;;;2.22;0.77;;;30.20;79.70;;;;;;4960918;28;20058;-69
2022/08/25 10:47:59;;;;;;;5.20;0.80;;;30.40;79.00;;;;;;4981770;28;20803;-70
2022/08/25 10:50:37;;;;;;;2.10;0.60;;;30.40;79.90;;;;;;4977927;28;20783;-70
2022/08/25 10:53:13;;;;;;;1.95;0.82;;;30.40;80.50;;;;;;4961192;28;20042;-71
2022/08/25 10:55:54;;;;;;;1.63;0.57;;;30.50;79.90;;;;;;4962644;28;20039;-70
2022/08/25 10:58:58;;;;;;;1.65;0.75;;;30.70;79.10;;;;;;4962289;28;20027;-71
2022/08/25 11:01:58;;;;;;;8.63;0.75;;;30.90;77.10;;;;;;4959409;28;20039;-71
2022/08/25 11:04:28;;;;;;;4.32;1.02;;;31.00;75.80;;;;;;4960752;28;20118;-71
2022/08/25 11:07:10;;;;;;;4.60;1.27;;;30.90;77.60;;;;;;4962638;28;20062;-71
2022/08/25 11:09:40;;;;;;;6.05;1.02;;;30.80;76.80;;;;;;4961328;28;20035;-71
2022/08/25 11:12:14;;;;;;;4.30;0.90;;;30.60;75.70;;;;;;4963479;28;20715;-72
2022/08/25 11:14:48;;;;;;;3.25;0.98;;;30.50;74.20;;;;;;4962148;28;20149;-72
2022/08/25 11:17:31;;;;;;;4.50;0.68;;;30.40;74.90;;;;;;4962858;28;20209;-72
2022/08/25 11:20:05;;;;;;;2.45;0.60;;;30.30;74.80;;;;;;4963885;28;20530;-70
2022/08/25 11:22:44;;;;;;;0.80;0.57;;;30.20;75.60;;;;;;4962126;28;20038;-72
2022/08/25 11:25:19;;;;;;;2.40;0.57;;;30.10;74.10;;;;;;4964115;28;20089;-71
2022/08/25 11:27:59;;;;;;;3.13;0.80;;;30.10;74.90;;;;;;4962235;28;20820;-71
2022/08/25 11:30:25;;;;;;;3.65;0.60;;;30.00;76.20;;;;;;4960054;28;20593;-71
2022/08/25 11:32:53;;;;;;;1.35;0.63;;;30.10;75.40;;;;;;4980530;28;20039;-72
2022/08/25 11:35:31;;;;;;;2.58;1.08;;;30.10;75.50;;;;;;4981302;28;20402;-71
2022/08/25 11:38:09;;;;;;;2.97;0.90;;;30.20;76.50;;;;;;4960764;28;20138;-73
2022/08/25 11:40:41;;;;;;;4.57;0.68;;;30.40;75.10;;;;;;4960272;28;20145;-73
2022/08/25 11:43:28;;;;;;;1.25;0.80;;;30.50;73.50;;;;;;4962747;28;20027;-69
2022/08/25 11:46:04;;;;;;;2.58;1.08;;;30.80;74.30;;;;;;4978443;28;20075;-72
2022/08/25 11:49:07;;;;;;;2.35;0.85;;;31.00;71.10;;;;;;4962114;28;20027;-72
2022/08/25 11:51:43;;;;;;;4.50;0.82;;;31.20;71.50;;;;;;4963174;28;20027;-70
2022/08/25 11:54:18;;;;;;;1.63;0.80;;;31.30;71.00;;;;;;4961898;28;20043;-71
2022/08/25 11:57:03;;;;;;;0.70;0.52;;;31.30;71.90;;;;;;4961160;28;20039;-71
2022/08/25 11:59:50;;;;;;;2.03;0.60;;;31.30;72.80;;;;;;4961563;28;20034;-69
2022/08/25 12:02:39;;;;;;;0.65;0.40;;;31.40;71.80;;;;;;4962669;28;20049;-71
2022/08/25 12:06:09;;;;;;;2.33;1.02;;;31.40;70.40;;;;;;4965008;28;20054;-72
2022/08/25 12:08:53;;;;;;;1.05;0.65;;;31.40;71.70;;;;;;4962813;28;20054;-70
2022/08/25 12:11:38;;;;;;;1.95;0.50;;;31.30;70.80;;;;;;4964620;28;20068;-71
2022/08/25 12:14:17;;;;;;;1.52;0.90;;;31.30;70.50;;;;;;4964248;28;20583;-71
2022/08/25 12:17:00;;;;;;;3.50;1.05;;;31.30;69.90;;;;;;4967326;28;20039;-71
2022/08/25 12:19:28;;;;;;;4.50;0.70;;;31.10;68.80;;;;;;4987995;28;20043;-71
2022/08/25 12:22:17;;;;;;;3.55;1.38;;;31.00;69.60;;;;;;4987657;28;20048;-70
2022/08/25 12:24:43;;;;;;;0.90;0.60;;;31.00;69.20;;;;;;4982596;28;20481;-71
2022/08/25 12:27:36;;;;;;;4.93;1.00;;;31.00;69.90;;;;;;4989862;28;20034;-70
2022/08/25 12:30:37;;;;;;;1.60;0.70;;;31.00;69.80;;;;;;4983071;28;20579;-71
2022/08/25 12:33:15;;;;;;;1.42;0.68;;;30.90;70.00;;;;;;4983286;28;20053;-72
2022/08/25 12:36:03;;;;;;;1.63;0.68;;;30.90;70.00;;;;;;4985991;28;20037;-72
2022/08/25 12:38:43;;;;;;;1.23;0.63;;;30.90;70.00;;;;;;4984358;28;20026;-70
2022/08/25 12:41:18;;;;;;;;;;;30.90;69.20;;;;;;4987912;28;20073;-68
2022/08/25 12:43:53;;;;;;;0.98;0.68;;;31.00;69.10;;;;;;4984431;28;19917;-70
2022/08/25 12:46:18;;;;;;;3.53;1.13;;;31.00;69.10;;;;;;4986670;28;20034;-70
2022/08/25 12:49:03;;;;;;;4.40;1.17;;;31.00;69.40;;;;;;4984920;28;20030;-71
2022/08/25 12:51:34;;;;;;;4.30;1.00;;;30.90;70.80;;;;;;4985443;28;20034;-70
2022/08/25 12:54:11;;;;;;;1.10;0.68;;;30.90;70.50;;;;;;4985920;28;20148;-69
2022/08/25 12:56:43;;;;;;;2.50;1.00;;;30.80;70.80;;;;;;4986280;28;20033;-69
2022/08/25 12:59:11;;;;;;;1.63;0.80;;;30.80;70.30;;;;;;4986146;28;20118;-71
2022/08/25 13:01:55;;;;;;;4.45;0.70;;;30.70;70.40;;;;;;4987409;28;20037;-69
2022/08/25 13:04:35;;;;;;;2.55;0.98;;;30.70;69.60;;;;;;4984430;28;20038;-70
2022/08/25 13:07:23;;;;;;;3.78;1.00;;;30.70;70.50;;;;;;4963725;28;20039;-70
2022/08/25 13:10:24;;;;;;;2.40;0.75;;;30.70;70.80;;;;;;4965344;28;20045;-71
2022/08/25 13:12:54;;;;;;;1.20;0.50;;;30.60;69.70;;;;;;4961064;28;20041;-70
2022/08/25 13:15:36;;;;;;;2.75;0.80;;;30.60;70.30;;;;;;4996501;28;20364;-69